sensor_id;sensor_type;location;lat;lon;timestamp;noise_LAeq;noise_LA_min;noise_LA_max;noise_LA01;noise_LA95
72466;Laerm;60471;52.150;4.508;2023-06-22T00:01:18;53.30;36.40;64.49;;
72466;Laerm;60471;52.150;4.508;2023-06-22T00:03:44;53.29;36.03;65.27;;
72466;Laerm;60471;52.150;4.508;2023-06-22T00:06:11;54.35;36.63;67.10;;
72466;Laerm;60471;52.150;4.508;2023-06-22T00:08:37;53.25;37.61;64.71;;
72466;Laerm;60471;52.150;4.508;2023-06-22T00:11:03;53.39;37.05;64.18;;
72466;Laerm;60471;52.150;4.508;2023-06-22T00:13:29;54.03;36.56;64.32;;
72466;Laerm;60471;52.150;4.508;2023-06-22T00:15:55;53.81;36.54;68.58;;
72466;Laerm;60471;52.150;4.508;2023-06-22T00:18:22;53.42;35.37;65.31;;
72466;Laerm;60471;52.150;4.508;2023-06-22T00:20:48;53.91;35.68;65.68;;
72466;Laerm;60471;52.150;4.508;2023-06-22T00:23:14;54.59;35.36;66.87;;
72466;Laerm;60471;52.150;4.508;2023-06-22T00:25:43;55.05;35.59;67.88;;
72466;Laerm;60471;52.150;4.508;2023-06-22T00:28:09;55.26;36.34;66.97;;
72466;Laerm;60471;52.150;4.508;2023-06-22T00:30:36;53.65;36.88;65.12;;
72466;Laerm;60471;52.150;4.508;2023-06-22T00:33:02;53.47;38.34;64.65;;
72466;Laerm;60471;52.150;4.508;2023-06-22T00:35:28;55.26;37.52;68.17;;
72466;Laerm;60471;52.150;4.508;2023-06-22T00:37:56;55.07;36.93;67.66;;
72466;Laerm;60471;52.150;4.508;2023-06-22T00:40:28;54.19;36.31;67.25;;
72466;Laerm;60471;52.150;4.508;2023-06-22T00:42:55;54.07;36.05;65.28;;
72466;Laerm;60471;52.150;4.508;2023-06-22T00:45:24;55.27;35.78;67.44;;
72466;Laerm;60471;52.150;4.508;2023-06-22T00:47:57;53.63;37.57;65.38;;
72466;Laerm;60471;52.150;4.508;2023-06-22T00:50:26;55.23;35.79;67.85;;
72466;Laerm;60471;52.150;4.508;2023-06-22T00:52:56;55.54;35.88;67.65;;
72466;Laerm;60471;52.150;4.508;2023-06-22T00:55:24;53.82;35.32;65.12;;
72466;Laerm;60471;52.150;4.508;2023-06-22T00:57:52;55.29;35.08;68.75;;
72466;Laerm;60471;52.150;4.508;2023-06-22T01:00:24;54.35;34.73;67.80;;
72466;Laerm;60471;52.150;4.508;2023-06-22T01:02:52;55.23;35.39;67.24;;
72466;Laerm;60471;52.150;4.508;2023-06-22T01:05:21;54.16;36.25;66.50;;
72466;Laerm;60471;52.150;4.508;2023-06-22T01:11:07;54.60;35.51;69.14;;
72466;Laerm;60471;52.150;4.508;2023-06-22T01:16:47;53.91;35.65;67.82;;
72466;Laerm;60471;52.150;4.508;2023-06-22T01:19:34;54.57;35.89;67.37;;
72466;Laerm;60471;52.150;4.508;2023-06-22T01:22:03;55.02;36.34;67.24;;
72466;Laerm;60471;52.150;4.508;2023-06-22T01:30:43;52.86;36.59;65.40;;
72466;Laerm;60471;52.150;4.508;2023-06-22T01:33:13;55.07;35.99;67.62;;
72466;Laerm;60471;52.150;4.508;2023-06-22T01:35:41;55.29;36.10;68.06;;
72466;Laerm;60471;52.150;4.508;2023-06-22T01:38:09;52.98;36.45;64.37;;
72466;Laerm;60471;52.150;4.508;2023-06-22T01:40:36;54.70;36.83;66.47;;
72466;Laerm;60471;52.150;4.508;2023-06-22T01:43:03;55.82;37.60;67.23;;
72466;Laerm;60471;52.150;4.508;2023-06-22T01:45:30;53.47;36.96;66.25;;
72466;Laerm;60471;52.150;4.508;2023-06-22T01:47:57;54.10;37.03;65.42;;
72466;Laerm;60471;52.150;4.508;2023-06-22T01:50:24;55.32;36.11;68.53;;
72466;Laerm;60471;52.150;4.508;2023-06-22T01:52:50;55.48;35.98;67.71;;
72466;Laerm;60471;52.150;4.508;2023-06-22T01:55:17;54.76;36.07;66.93;;
72466;Laerm;60471;52.150;4.508;2023-06-22T01:57:43;54.29;35.49;67.46;;
72466;Laerm;60471;52.150;4.508;2023-06-22T02:00:19;55.11;35.71;67.72;;
72466;Laerm;60471;52.150;4.508;2023-06-22T02:02:59;53.78;35.93;65.72;;
72466;Laerm;60471;52.150;4.508;2023-06-22T02:05:39;54.47;35.63;67.42;;
72466;Laerm;60471;52.150;4.508;2023-06-22T02:08:13;55.69;36.17;68.46;;
72466;Laerm;60471;52.150;4.508;2023-06-22T02:10:45;54.81;36.46;67.75;;
72466;Laerm;60471;52.150;4.508;2023-06-22T02:13:14;54.23;36.42;65.36;;
72466;Laerm;60471;52.150;4.508;2023-06-22T02:15:41;55.25;37.48;68.31;;
72466;Laerm;60471;52.150;4.508;2023-06-22T02:18:07;53.95;36.84;66.11;;
72466;Laerm;60471;52.150;4.508;2023-06-22T02:20:37;55.52;37.02;67.71;;
72466;Laerm;60471;52.150;4.508;2023-06-22T02:23:05;54.62;36.69;66.17;;
72466;Laerm;60471;52.150;4.508;2023-06-22T02:25:33;55.92;38.01;67.46;;
72466;Laerm;60471;52.150;4.508;2023-06-22T02:27:59;57.04;37.67;69.38;;
72466;Laerm;60471;52.150;4.508;2023-06-22T02:30:26;56.15;37.52;68.48;;
72466;Laerm;60471;52.150;4.508;2023-06-22T02:32:52;56.03;37.96;67.71;;
72466;Laerm;60471;52.150;4.508;2023-06-22T02:35:29;55.38;37.78;67.47;;
72466;Laerm;60471;52.150;4.508;2023-06-22T02:37:59;54.96;37.55;67.19;;
72466;Laerm;60471;52.150;4.508;2023-06-22T02:40:27;55.04;37.91;67.27;;
72466;Laerm;60471;52.150;4.508;2023-06-22T02:42:53;56.44;37.32;68.83;;
72466;Laerm;60471;52.150;4.508;2023-06-22T02:45:20;55.52;37.84;67.37;;
72466;Laerm;60471;52.150;4.508;2023-06-22T02:47:46;56.13;38.20;67.88;;
72466;Laerm;60471;52.150;4.508;2023-06-22T02:50:13;55.76;38.02;68.19;;
72466;Laerm;60471;52.150;4.508;2023-06-22T02:52:41;56.97;37.34;68.75;;
72466;Laerm;60471;52.150;4.508;2023-06-22T02:55:08;56.45;38.71;67.75;;
72466;Laerm;60471;52.150;4.508;2023-06-22T02:57:34;56.73;36.70;68.63;;
72466;Laerm;60471;52.150;4.508;2023-06-22T03:00:03;57.62;37.39;69.52;;
72466;Laerm;60471;52.150;4.508;2023-06-22T03:02:44;55.60;37.54;67.59;;
72466;Laerm;60471;52.150;4.508;2023-06-22T03:05:11;56.38;37.25;68.56;;
72466;Laerm;60471;52.150;4.508;2023-06-22T03:07:41;54.90;37.44;66.93;;
72466;Laerm;60471;52.150;4.508;2023-06-22T03:10:12;55.95;38.20;68.18;;
72466;Laerm;60471;52.150;4.508;2023-06-22T03:12:39;55.70;37.84;67.58;;
72466;Laerm;60471;52.150;4.508;2023-06-22T03:15:12;56.59;37.95;68.74;;
72466;Laerm;60471;52.150;4.508;2023-06-22T03:17:40;55.19;37.58;66.12;;
72466;Laerm;60471;52.150;4.508;2023-06-22T03:20:08;55.31;38.58;67.13;;
72466;Laerm;60471;52.150;4.508;2023-06-22T03:22:40;55.16;37.77;68.18;;
72466;Laerm;60471;52.150;4.508;2023-06-22T03:25:08;56.81;38.19;69.04;;
72466;Laerm;60471;52.150;4.508;2023-06-22T03:27:43;55.71;37.70;67.80;;
72466;Laerm;60471;52.150;4.508;2023-06-22T03:30:14;54.93;37.85;67.85;;
72466;Laerm;60471;52.150;4.508;2023-06-22T03:32:40;57.42;38.92;68.88;;
72466;Laerm;60471;52.150;4.508;2023-06-22T03:35:07;55.66;39.29;67.42;;
72466;Laerm;60471;52.150;4.508;2023-06-22T03:37:33;55.67;37.73;68.02;;
72466;Laerm;60471;52.150;4.508;2023-06-22T03:39:59;56.48;37.59;69.22;;
72466;Laerm;60471;52.150;4.508;2023-06-22T03:42:26;56.70;37.99;68.46;;
72466;Laerm;60471;52.150;4.508;2023-06-22T03:44:52;55.82;38.57;67.91;;
72466;Laerm;60471;52.150;4.508;2023-06-22T03:47:19;54.61;38.91;65.01;;
72466;Laerm;60471;52.150;4.508;2023-06-22T03:49:45;56.31;38.73;67.75;;
72466;Laerm;60471;52.150;4.508;2023-06-22T03:52:11;56.00;39.36;68.55;;
72466;Laerm;60471;52.150;4.508;2023-06-22T03:54:37;54.09;39.58;65.71;;
72466;Laerm;60471;52.150;4.508;2023-06-22T03:57:04;55.71;41.16;65.57;;
72466;Laerm;60471;52.150;4.508;2023-06-22T03:59:31;54.50;40.11;66.87;;
72466;Laerm;60471;52.150;4.508;2023-06-22T04:01:58;56.21;39.39;68.03;;
72466;Laerm;60471;52.150;4.508;2023-06-22T04:04:24;55.53;40.45;68.14;;
72466;Laerm;60471;52.150;4.508;2023-06-22T04:06:50;55.70;39.88;67.67;;
72466;Laerm;60471;52.150;4.508;2023-06-22T04:09:17;55.91;39.82;68.14;;
72466;Laerm;60471;52.150;4.508;2023-06-22T04:11:43;55.14;39.08;67.23;;
72466;Laerm;60471;52.150;4.508;2023-06-22T04:14:09;56.27;39.89;69.27;;
72466;Laerm;60471;52.150;4.508;2023-06-22T04:16:36;56.72;39.90;68.94;;
72466;Laerm;60471;52.150;4.508;2023-06-22T04:19:02;56.37;39.43;75.83;;
72466;Laerm;60471;52.150;4.508;2023-06-22T04:21:28;55.45;39.50;67.63;;
72466;Laerm;60471;52.150;4.508;2023-06-22T04:23:54;55.75;39.67;67.17;;
72466;Laerm;60471;52.150;4.508;2023-06-22T04:26:20;55.96;39.56;67.37;;
72466;Laerm;60471;52.150;4.508;2023-06-22T04:28:48;55.49;40.20;66.59;;
72466;Laerm;60471;52.150;4.508;2023-06-22T04:31:21;56.67;41.95;68.44;;
72466;Laerm;60471;52.150;4.508;2023-06-22T04:33:48;56.48;40.41;69.69;;
72466;Laerm;60471;52.150;4.508;2023-06-22T04:36:14;56.87;41.76;68.02;;
72466;Laerm;60471;52.150;4.508;2023-06-22T04:38:40;55.94;40.83;68.85;;
72466;Laerm;60471;52.150;4.508;2023-06-22T04:41:08;56.91;42.95;68.28;;
72466;Laerm;60471;52.150;4.508;2023-06-22T04:43:49;56.71;41.92;68.74;;
72466;Laerm;60471;52.150;4.508;2023-06-22T04:46:20;58.16;40.77;67.89;;
72466;Laerm;60471;52.150;4.508;2023-06-22T04:48:46;58.64;41.56;71.27;;
72466;Laerm;60471;52.150;4.508;2023-06-22T04:51:13;56.29;42.09;66.38;;
72466;Laerm;60471;52.150;4.508;2023-06-22T04:53:39;55.22;41.30;64.91;;
72466;Laerm;60471;52.150;4.508;2023-06-22T04:56:08;56.16;42.89;64.93;;
72466;Laerm;60471;52.150;4.508;2023-06-22T04:58:34;57.49;42.29;67.81;;
72466;Laerm;60471;52.150;4.508;2023-06-22T05:01:00;56.14;42.09;66.96;;
72466;Laerm;60471;52.150;4.508;2023-06-22T05:03:26;55.33;41.03;65.10;;
72466;Laerm;60471;52.150;4.508;2023-06-22T05:05:53;56.44;40.73;67.68;;
72466;Laerm;60471;52.150;4.508;2023-06-22T05:08:19;57.02;42.23;66.82;;
72466;Laerm;60471;52.150;4.508;2023-06-22T05:10:46;54.57;41.35;64.11;;
72466;Laerm;60471;52.150;4.508;2023-06-22T05:13:12;55.90;42.02;65.21;;
72466;Laerm;60471;52.150;4.508;2023-06-22T05:15:38;54.84;41.91;67.41;;
72466;Laerm;60471;52.150;4.508;2023-06-22T05:18:06;57.96;42.89;68.81;;
72466;Laerm;60471;52.150;4.508;2023-06-22T05:20:33;57.07;41.24;67.14;;
72466;Laerm;60471;52.150;4.508;2023-06-22T05:23:02;55.93;42.23;65.38;;
72466;Laerm;60471;52.150;4.508;2023-06-22T05:25:28;57.22;43.88;66.12;;
72466;Laerm;60471;52.150;4.508;2023-06-22T05:27:56;54.51;41.41;64.57;;
72466;Laerm;60471;52.150;4.508;2023-06-22T05:30:22;55.88;42.61;65.67;;
72466;Laerm;60471;52.150;4.508;2023-06-22T05:32:48;55.66;43.05;66.76;;
72466;Laerm;60471;52.150;4.508;2023-06-22T05:35:14;56.07;41.84;65.63;;
72466;Laerm;60471;52.150;4.508;2023-06-22T05:37:41;56.78;45.06;65.75;;
72466;Laerm;60471;52.150;4.508;2023-06-22T05:40:08;56.03;42.16;65.57;;
72466;Laerm;60471;52.150;4.508;2023-06-22T05:42:35;55.65;41.83;65.15;;
72466;Laerm;60471;52.150;4.508;2023-06-22T05:45:02;57.72;47.77;65.38;;
72466;Laerm;60471;52.150;4.508;2023-06-22T05:47:28;56.91;46.51;64.39;;
72466;Laerm;60471;52.150;4.508;2023-06-22T05:49:54;58.82;41.70;66.82;;
72466;Laerm;60471;52.150;4.508;2023-06-22T05:52:20;58.05;43.59;67.44;;
72466;Laerm;60471;52.150;4.508;2023-06-22T05:54:46;57.82;44.21;66.15;;
72466;Laerm;60471;52.150;4.508;2023-06-22T05:57:13;56.85;45.09;66.27;;
72466;Laerm;60471;52.150;4.508;2023-06-22T05:59:39;57.36;47.72;65.96;;
72466;Laerm;60471;52.150;4.508;2023-06-22T06:02:05;56.94;44.55;64.95;;
72466;Laerm;60471;52.150;4.508;2023-06-22T06:04:31;58.42;44.80;68.61;;
72466;Laerm;60471;52.150;4.508;2023-06-22T06:06:58;58.75;45.69;81.13;;
72466;Laerm;60471;52.150;4.508;2023-06-22T06:09:24;56.58;44.38;67.24;;
72466;Laerm;60471;52.150;4.508;2023-06-22T06:11:50;57.33;45.40;65.46;;
72466;Laerm;60471;52.150;4.508;2023-06-22T06:14:16;57.32;43.44;66.12;;
72466;Laerm;60471;52.150;4.508;2023-06-22T06:16:43;56.84;42.88;66.30;;
72466;Laerm;60471;52.150;4.508;2023-06-22T06:19:09;56.75;44.84;80.58;;
72466;Laerm;60471;52.150;4.508;2023-06-22T06:21:35;55.88;45.01;64.59;;
72466;Laerm;60471;52.150;4.508;2023-06-22T06:24:02;58.27;47.21;66.32;;
72466;Laerm;60471;52.150;4.508;2023-06-22T06:26:28;56.57;47.01;66.01;;
72466;Laerm;60471;52.150;4.508;2023-06-22T06:28:56;57.54;46.97;66.26;;
72466;Laerm;60471;52.150;4.508;2023-06-22T06:31:23;56.74;43.94;66.08;;
72466;Laerm;60471;52.150;4.508;2023-06-22T06:33:50;57.19;43.94;66.68;;
72466;Laerm;60471;52.150;4.508;2023-06-22T06:36:16;58.17;47.65;74.92;;
72466;Laerm;60471;52.150;4.508;2023-06-22T06:38:42;57.47;45.31;78.77;;
72466;Laerm;60471;52.150;4.508;2023-06-22T06:41:08;58.70;47.52;70.70;;
72466;Laerm;60471;52.150;4.508;2023-06-22T06:43:35;57.30;46.75;80.40;;
72466;Laerm;60471;52.150;4.508;2023-06-22T06:46:01;58.01;47.66;80.89;;
72466;Laerm;60471;52.150;4.508;2023-06-22T06:48:29;58.43;46.06;79.98;;
72466;Laerm;60471;52.150;4.508;2023-06-22T06:50:55;57.60;43.79;80.04;;
72466;Laerm;60471;52.150;4.508;2023-06-22T06:53:21;56.55;44.79;64.20;;
72466;Laerm;60471;52.150;4.508;2023-06-22T06:55:48;55.15;44.16;63.29;;
72466;Laerm;60471;52.150;4.508;2023-06-22T06:58:14;55.74;42.09;65.21;;
72466;Laerm;60471;52.150;4.508;2023-06-22T07:00:40;62.58;41.92;86.21;;
72466;Laerm;60471;52.150;4.508;2023-06-22T07:03:08;57.08;45.32;69.03;;
72466;Laerm;60471;52.150;4.508;2023-06-22T07:05:34;54.50;42.87;63.69;;
72466;Laerm;60471;52.150;4.508;2023-06-22T07:08:01;55.17;44.71;70.23;;
72466;Laerm;60471;52.150;4.508;2023-06-22T07:10:29;57.85;45.37;66.59;;
72466;Laerm;60471;52.150;4.508;2023-06-22T07:12:55;55.86;45.63;70.34;;
72466;Laerm;60471;52.150;4.508;2023-06-22T07:15:23;58.13;45.10;83.16;;
72466;Laerm;60471;52.150;4.508;2023-06-22T07:17:49;56.24;43.21;65.71;;
72466;Laerm;60471;52.150;4.508;2023-06-22T07:20:15;55.27;43.58;65.59;;
72466;Laerm;60471;52.150;4.508;2023-06-22T07:22:43;56.09;42.84;63.95;;
72466;Laerm;60471;52.150;4.508;2023-06-22T07:25:11;56.05;43.49;66.13;;
72466;Laerm;60471;52.150;4.508;2023-06-22T07:27:57;56.20;42.07;63.33;;
72466;Laerm;60471;52.150;4.508;2023-06-22T07:30:24;54.67;43.06;67.93;;
72466;Laerm;60471;52.150;4.508;2023-06-22T07:32:51;55.80;43.94;73.58;;
72466;Laerm;60471;52.150;4.508;2023-06-22T07:35:17;56.69;44.95;65.06;;
72466;Laerm;60471;52.150;4.508;2023-06-22T07:37:43;56.03;45.28;64.47;;
72466;Laerm;60471;52.150;4.508;2023-06-22T07:40:10;55.33;42.73;66.35;;
72466;Laerm;60471;52.150;4.508;2023-06-22T07:42:37;53.45;43.59;62.84;;
72466;Laerm;60471;52.150;4.508;2023-06-22T07:45:04;53.95;43.15;63.49;;
72466;Laerm;60471;52.150;4.508;2023-06-22T07:47:31;57.26;46.51;66.14;;
72466;Laerm;60471;52.150;4.508;2023-06-22T07:50:02;56.55;46.57;69.19;;
72466;Laerm;60471;52.150;4.508;2023-06-22T07:52:29;56.47;46.70;66.59;;
72466;Laerm;60471;52.150;4.508;2023-06-22T07:54:55;56.77;45.01;64.58;;
72466;Laerm;60471;52.150;4.508;2023-06-22T07:57:22;55.41;42.35;64.07;;
72466;Laerm;60471;52.150;4.508;2023-06-22T07:59:48;56.69;47.30;65.42;;
72466;Laerm;60471;52.150;4.508;2023-06-22T08:02:14;57.71;45.67;77.65;;
72466;Laerm;60471;52.150;4.508;2023-06-22T08:04:41;60.05;44.72;78.97;;
72466;Laerm;60471;52.150;4.508;2023-06-22T08:07:07;55.88;46.41;64.12;;
72466;Laerm;60471;52.150;4.508;2023-06-22T08:09:33;55.59;43.84;64.02;;
72466;Laerm;60471;52.150;4.508;2023-06-22T08:12:00;55.66;45.96;63.58;;
72466;Laerm;60471;52.150;4.508;2023-06-22T08:14:27;54.17;44.49;65.12;;
72466;Laerm;60471;52.150;4.508;2023-06-22T08:16:53;55.15;44.64;62.96;;
72466;Laerm;60471;52.150;4.508;2023-06-22T08:19:19;55.83;43.82;69.87;;
72466;Laerm;60471;52.150;4.508;2023-06-22T08:21:46;54.85;43.44;66.42;;
72466;Laerm;60471;52.150;4.508;2023-06-22T08:24:12;55.88;46.19;75.87;;
72466;Laerm;60471;52.150;4.508;2023-06-22T08:26:38;55.50;45.90;70.76;;
72466;Laerm;60471;52.150;4.508;2023-06-22T08:29:05;59.28;44.78;86.05;;
72466;Laerm;60471;52.150;4.508;2023-06-22T08:31:31;59.27;46.28;73.40;;
72466;Laerm;60471;52.150;4.508;2023-06-22T08:34:01;57.43;45.78;69.12;;
72466;Laerm;60471;52.150;4.508;2023-06-22T08:36:27;56.16;48.46;63.81;;
72466;Laerm;60471;52.150;4.508;2023-06-22T08:38:59;53.69;45.34;67.62;;
72466;Laerm;60471;52.150;4.508;2023-06-22T08:41:27;54.78;45.34;68.36;;
72466;Laerm;60471;52.150;4.508;2023-06-22T08:43:53;56.26;46.05;64.58;;
72466;Laerm;60471;52.150;4.508;2023-06-22T08:46:20;55.50;45.30;65.13;;
72466;Laerm;60471;52.150;4.508;2023-06-22T08:48:49;55.85;45.05;64.96;;
72466;Laerm;60471;52.150;4.508;2023-06-22T08:51:16;56.03;43.45;64.90;;
72466;Laerm;60471;52.150;4.508;2023-06-22T08:53:43;56.97;46.50;64.50;;
72466;Laerm;60471;52.150;4.508;2023-06-22T08:56:11;56.67;45.43;66.37;;
72466;Laerm;60471;52.150;4.508;2023-06-22T08:58:37;55.23;42.90;65.68;;
72466;Laerm;60471;52.150;4.508;2023-06-22T09:01:03;54.44;43.62;63.79;;
72466;Laerm;60471;52.150;4.508;2023-06-22T09:03:30;55.01;45.17;62.92;;
72466;Laerm;60471;52.150;4.508;2023-06-22T09:05:59;55.51;45.25;70.41;;
72466;Laerm;60471;52.150;4.508;2023-06-22T09:08:25;56.16;44.88;63.54;;
72466;Laerm;60471;52.150;4.508;2023-06-22T09:10:51;55.51;46.74;73.64;;
72466;Laerm;60471;52.150;4.508;2023-06-22T09:13:17;54.34;44.03;63.05;;
72466;Laerm;60471;52.150;4.508;2023-06-22T09:15:43;57.94;48.01;64.80;;
72466;Laerm;60471;52.150;4.508;2023-06-22T09:18:11;57.28;47.66;69.77;;
72466;Laerm;60471;52.150;4.508;2023-06-22T09:20:37;55.56;44.86;68.44;;
72466;Laerm;60471;52.150;4.508;2023-06-22T09:23:03;55.51;43.88;68.74;;
72466;Laerm;60471;52.150;4.508;2023-06-22T09:25:30;54.20;44.47;62.80;;
72466;Laerm;60471;52.150;4.508;2023-06-22T09:27:56;54.86;45.32;62.65;;
72466;Laerm;60471;52.150;4.508;2023-06-22T09:30:22;53.79;44.54;64.10;;
72466;Laerm;60471;52.150;4.508;2023-06-22T09:32:48;55.86;44.86;68.22;;
72466;Laerm;60471;52.150;4.508;2023-06-22T09:35:15;56.91;46.38;68.09;;
72466;Laerm;60471;52.150;4.508;2023-06-22T09:37:41;54.46;43.89;63.92;;
72466;Laerm;60471;52.150;4.508;2023-06-22T09:40:08;57.62;46.78;67.94;;
72466;Laerm;60471;52.150;4.508;2023-06-22T09:42:39;56.38;45.78;67.83;;
72466;Laerm;60471;52.150;4.508;2023-06-22T09:45:06;56.13;46.61;67.79;;
72466;Laerm;60471;52.150;4.508;2023-06-22T09:47:32;56.88;43.38;66.31;;
72466;Laerm;60471;52.150;4.508;2023-06-22T09:49:58;53.85;44.49;64.65;;
72466;Laerm;60471;52.150;4.508;2023-06-22T09:52:25;54.41;42.42;67.45;;
72466;Laerm;60471;52.150;4.508;2023-06-22T09:54:52;56.90;44.36;67.56;;
72466;Laerm;60471;52.150;4.508;2023-06-22T09:57:18;54.67;43.79;65.65;;
72466;Laerm;60471;52.150;4.508;2023-06-22T09:59:44;54.84;45.06;63.31;;
72466;Laerm;60471;52.150;4.508;2023-06-22T10:02:10;55.42;45.05;66.38;;
72466;Laerm;60471;52.150;4.508;2023-06-22T10:04:37;54.27;44.11;62.88;;
72466;Laerm;60471;52.150;4.508;2023-06-22T10:07:03;54.53;42.64;71.04;;
72466;Laerm;60471;52.150;4.508;2023-06-22T10:09:30;53.87;41.92;65.33;;
72466;Laerm;60471;52.150;4.508;2023-06-22T10:11:56;55.73;43.16;64.99;;
72466;Laerm;60471;52.150;4.508;2023-06-22T10:14:22;56.59;45.83;63.84;;
72466;Laerm;60471;52.150;4.508;2023-06-22T10:16:48;55.13;44.68;66.73;;
72466;Laerm;60471;52.150;4.508;2023-06-22T10:19:17;55.67;46.28;63.77;;
72466;Laerm;60471;52.150;4.508;2023-06-22T10:21:44;52.50;41.46;62.36;;
72466;Laerm;60471;52.150;4.508;2023-06-22T10:24:10;55.35;43.40;63.15;;
72466;Laerm;60471;52.150;4.508;2023-06-22T10:26:36;54.20;43.71;67.09;;
72466;Laerm;60471;52.150;4.508;2023-06-22T10:29:03;54.65;44.14;62.18;;
72466;Laerm;60471;52.150;4.508;2023-06-22T10:31:29;59.43;46.07;74.13;;
72466;Laerm;60471;52.150;4.508;2023-06-22T10:33:56;55.81;45.37;64.23;;
72466;Laerm;60471;52.150;4.508;2023-06-22T10:36:22;55.53;45.00;64.34;;
72466;Laerm;60471;52.150;4.508;2023-06-22T10:38:49;54.10;42.79;62.89;;
72466;Laerm;60471;52.150;4.508;2023-06-22T10:41:15;55.65;45.73;64.46;;
72466;Laerm;60471;52.150;4.508;2023-06-22T10:43:42;54.76;46.18;66.88;;
72466;Laerm;60471;52.150;4.508;2023-06-22T10:46:09;55.71;43.86;66.45;;
72466;Laerm;60471;52.150;4.508;2023-06-22T10:48:35;55.32;43.31;62.79;;
72466;Laerm;60471;52.150;4.508;2023-06-22T10:51:01;54.30;43.49;65.88;;
72466;Laerm;60471;52.150;4.508;2023-06-22T10:53:27;55.85;44.25;66.30;;
72466;Laerm;60471;52.150;4.508;2023-06-22T10:55:54;57.54;46.86;67.22;;
72466;Laerm;60471;52.150;4.508;2023-06-22T10:58:20;55.94;47.02;65.11;;
72466;Laerm;60471;52.150;4.508;2023-06-22T11:00:46;58.75;45.99;68.75;;
72466;Laerm;60471;52.150;4.508;2023-06-22T11:03:13;54.77;46.56;63.46;;
72466;Laerm;60471;52.150;4.508;2023-06-22T11:05:40;56.58;47.08;70.13;;
72466;Laerm;60471;52.150;4.508;2023-06-22T11:08:07;57.17;45.70;68.32;;
72466;Laerm;60471;52.150;4.508;2023-06-22T11:10:33;54.49;45.44;63.65;;
72466;Laerm;60471;52.150;4.508;2023-06-22T11:12:59;55.51;47.58;64.43;;
72466;Laerm;60471;52.150;4.508;2023-06-22T11:15:26;57.55;45.66;68.35;;
72466;Laerm;60471;52.150;4.508;2023-06-22T11:17:52;65.69;46.34;88.24;;
72466;Laerm;60471;52.150;4.508;2023-06-22T11:20:18;65.83;45.87;84.64;;
72466;Laerm;60471;52.150;4.508;2023-06-22T11:22:45;66.11;46.69;87.96;;
72466;Laerm;60471;52.150;4.508;2023-06-22T11:25:11;64.85;44.87;85.46;;
72466;Laerm;60471;52.150;4.508;2023-06-22T11:27:38;56.74;44.83;78.61;;
72466;Laerm;60471;52.150;4.508;2023-06-22T11:30:05;63.84;46.10;82.29;;
72466;Laerm;60471;52.150;4.508;2023-06-22T11:32:31;60.67;43.02;83.17;;
72466;Laerm;60471;52.150;4.508;2023-06-22T11:34:58;62.75;44.08;85.66;;
72466;Laerm;60471;52.150;4.508;2023-06-22T11:37:24;57.24;45.20;72.86;;
72466;Laerm;60471;52.150;4.508;2023-06-22T11:39:50;53.84;43.97;62.64;;
72466;Laerm;60471;52.150;4.508;2023-06-22T11:42:16;55.29;46.93;63.66;;
72466;Laerm;60471;52.150;4.508;2023-06-22T11:44:42;53.79;43.46;62.23;;
72466;Laerm;60471;52.150;4.508;2023-06-22T11:47:10;55.94;43.24;63.49;;
72466;Laerm;60471;52.150;4.508;2023-06-22T11:49:36;55.61;43.26;63.60;;
72466;Laerm;60471;52.150;4.508;2023-06-22T11:52:02;56.42;47.43;65.33;;
72466;Laerm;60471;52.150;4.508;2023-06-22T11:54:29;54.97;42.04;63.73;;
72466;Laerm;60471;52.150;4.508;2023-06-22T11:56:55;55.00;43.38;64.85;;
72466;Laerm;60471;52.150;4.508;2023-06-22T11:59:21;56.50;45.56;66.12;;
72466;Laerm;60471;52.150;4.508;2023-06-22T12:01:48;54.22;43.48;64.03;;
72466;Laerm;60471;52.150;4.508;2023-06-22T12:04:16;54.61;43.72;63.98;;
72466;Laerm;60471;52.150;4.508;2023-06-22T12:06:43;55.30;45.96;66.44;;
72466;Laerm;60471;52.150;4.508;2023-06-22T12:09:10;55.06;45.81;64.38;;
72466;Laerm;60471;52.150;4.508;2023-06-22T12:11:36;55.27;43.48;65.51;;
72466;Laerm;60471;52.150;4.508;2023-06-22T12:14:02;60.62;45.31;74.46;;
72466;Laerm;60471;52.150;4.508;2023-06-22T12:16:28;54.93;44.70;63.81;;
72466;Laerm;60471;52.150;4.508;2023-06-22T12:18:55;54.21;42.52;65.33;;
72466;Laerm;60471;52.150;4.508;2023-06-22T12:21:21;55.13;44.22;62.37;;
72466;Laerm;60471;52.150;4.508;2023-06-22T12:23:47;55.62;44.75;63.77;;
72466;Laerm;60471;52.150;4.508;2023-06-22T12:26:14;56.72;46.35;67.81;;
72466;Laerm;60471;52.150;4.508;2023-06-22T12:28:40;56.51;43.86;65.57;;
72466;Laerm;60471;52.150;4.508;2023-06-22T12:31:06;53.58;42.70;63.60;;
72466;Laerm;60471;52.150;4.508;2023-06-22T12:33:33;55.65;43.06;64.83;;
72466;Laerm;60471;52.150;4.508;2023-06-22T12:35:59;54.79;43.52;68.54;;
72466;Laerm;60471;52.150;4.508;2023-06-22T12:38:25;54.68;44.43;62.88;;
72466;Laerm;60471;52.150;4.508;2023-06-22T12:40:52;56.41;44.45;67.34;;
72466;Laerm;60471;52.150;4.508;2023-06-22T12:43:18;55.76;45.36;65.73;;
72466;Laerm;60471;52.150;4.508;2023-06-22T12:45:44;55.20;43.50;63.26;;
72466;Laerm;60471;52.150;4.508;2023-06-22T12:48:11;55.47;45.08;64.32;;
72466;Laerm;60471;52.150;4.508;2023-06-22T12:50:38;55.06;46.55;64.96;;
72466;Laerm;60471;52.150;4.508;2023-06-22T12:53:04;55.73;46.66;64.94;;
72466;Laerm;60471;52.150;4.508;2023-06-22T12:55:32;57.44;46.68;65.69;;
72466;Laerm;60471;52.150;4.508;2023-06-22T12:57:58;57.55;45.36;68.38;;
72466;Laerm;60471;52.150;4.508;2023-06-22T13:00:24;55.40;44.41;62.72;;
72466;Laerm;60471;52.150;4.508;2023-06-22T13:02:51;54.96;43.71;62.45;;
72466;Laerm;60471;52.150;4.508;2023-06-22T13:05:17;56.49;44.62;64.73;;
72466;Laerm;60471;52.150;4.508;2023-06-22T13:07:43;55.79;45.17;64.67;;
72466;Laerm;60471;52.150;4.508;2023-06-22T13:10:09;54.74;45.34;62.51;;
72466;Laerm;60471;52.150;4.508;2023-06-22T13:12:36;54.43;43.96;62.00;;
72466;Laerm;60471;52.150;4.508;2023-06-22T13:15:02;56.69;46.81;73.68;;
72466;Laerm;60471;52.150;4.508;2023-06-22T13:17:29;55.93;46.65;63.40;;
72466;Laerm;60471;52.150;4.508;2023-06-22T13:19:55;57.17;44.95;66.52;;
72466;Laerm;60471;52.150;4.508;2023-06-22T13:22:34;55.69;43.60;73.16;;
72466;Laerm;60471;52.150;4.508;2023-06-22T13:25:07;54.42;44.30;64.41;;
72466;Laerm;60471;52.150;4.508;2023-06-22T13:27:33;56.70;44.39;78.74;;
72466;Laerm;60471;52.150;4.508;2023-06-22T13:30:00;54.56;43.57;62.78;;
72466;Laerm;60471;52.150;4.508;2023-06-22T13:32:26;56.12;45.60;64.06;;
72466;Laerm;60471;52.150;4.508;2023-06-22T13:34:53;55.82;44.15;65.00;;
72466;Laerm;60471;52.150;4.508;2023-06-22T13:37:19;55.74;44.93;64.05;;
72466;Laerm;60471;52.150;4.508;2023-06-22T13:39:46;56.13;46.00;64.52;;
72466;Laerm;60471;52.150;4.508;2023-06-22T13:42:12;56.33;45.13;63.06;;
72466;Laerm;60471;52.150;4.508;2023-06-22T13:44:38;56.43;46.67;62.93;;
72466;Laerm;60471;52.150;4.508;2023-06-22T13:47:06;55.37;44.72;62.82;;
72466;Laerm;60471;52.150;4.508;2023-06-22T13:49:33;64.13;45.23;78.87;;
72466;Laerm;60471;52.150;4.508;2023-06-22T13:51:59;55.08;45.30;62.81;;
72466;Laerm;60471;52.150;4.508;2023-06-22T13:54:26;57.18;45.42;67.45;;
72466;Laerm;60471;52.150;4.508;2023-06-22T13:56:52;56.78;43.97;64.50;;